Thunder radar more information blitzortung!


Löydät sääaseman tiedot myös:

European Weather Network

Finland Weather Exchange

Weather Underground

AWEKAS



Weather Underground säähistoriasivu

Päivittäin yhteenveto Tou 5, 2017 Yksiköt:  Englantilaiset    Metriset   Molemmat
« Edellinen Päivä
Seuraava Päivä »
Päivittäin Viikoittain Kuukausittain Vuosittain Mukautettu
  Korkea: Matala: Keskiarvo:
Lämpötila: TemperatureC °F 1.8 °F 10.3 °F
Kastepiste: DewpointC °F -2.1 °F 4.2 °F
Kosteus: Humidity % 50 % 66 %
Tuulen nopeus: WindSpeedKMH mph 0.0 mph 2.2 mph
Tuulenpuuska: WindSpeedGustKMH mph - -
Tuuli:- - WSW
Ilmanpaine: PressurehPa in 1013.4 in -
Sade: 0.0 in    
Historical Graphs
 
 
Taulukkotiedot Tou 5, 2017
Aika Lämpötila Kastepiste Ilmanpaine Tuuli Tuulen nopeus Tuulenpuuska Kosteus Sademäärä (tunneittain)
TemperatureC °F DewpointC °F PressurehPa in Calm     Humidity % HourlyPrecipMM in
00:00 3.5 °F -1.9 °F 1028.3 in SSW 6.4 mph 12.9 mph 68 % 0.0 in
00:15 3.3 °F -1.8 °F 1028.3 in SW 4.8 mph 9.7 mph 69 % 0.0 in
00:30 3.3 °F -1.9 °F 1028.0 in SSW 6.4 mph 12.9 mph 69 % 0.0 in
00:45 3.3 °F -1.9 °F 1028.0 in SSW 4.8 mph 11.3 mph 69 % 0.0 in
01:00 3.3 °F -1.9 °F 1027.7 in SSW 4.8 mph 14.5 mph 69 % 0.0 in
01:15 3.2 °F -2.0 °F 1027.7 in Calm   3.2 mph 69 % 0.0 in
01:30 3.2 °F -2.1 °F 1027.7 in Calm   6.4 mph 68 % 0.0 in
01:45 3.4 °F -2.1 °F 1027.3 in SSW 3.2 mph 9.7 mph 67 % 0.0 in
02:00 3.8 °F -1.6 °F 1027.0 in SW 6.4 mph 19.3 mph 68 % 0.0 in
02:15 3.7 °F -1.3 °F 1026.6 in SW 4.8 mph 11.3 mph 70 % 0.0 in
02:30 3.4 °F -1.1 °F 1026.6 in SW 4.8 mph 12.9 mph 72 % 0.0 in
02:45 3.2 °F -0.8 °F 1026.6 in SW 4.8 mph 14.5 mph 75 % 0.0 in
03:00 3.0 °F -0.8 °F 1026.3 in SSW 3.2 mph 11.3 mph 76 % 0.0 in
03:15 2.8 °F -0.7 °F 1026.3 in SW 1.6 mph 9.7 mph 78 % 0.0 in
03:30 2.6 °F -0.7 °F 1026.0 in SW 1.6 mph 9.7 mph 79 % 0.0 in
03:45 2.4 °F -0.5 °F 1026.0 in SW 1.6 mph 9.7 mph 81 % 0.0 in
04:00 2.2 °F -0.5 °F 1025.6 in SSW 1.6 mph 6.4 mph 82 % 0.0 in
04:15 2.1 °F -0.5 °F 1025.6 in SW 1.6 mph 6.4 mph 83 % 0.0 in
04:30 1.9 °F -0.5 °F 1025.3 in Calm   3.2 mph 84 % 0.0 in
04:45 1.9 °F -0.4 °F 1024.9 in SSW 1.6 mph 8.0 mph 85 % 0.0 in
05:00 1.9 °F -0.2 °F 1024.9 in SSW 3.2 mph 8.0 mph 86 % 0.0 in
05:15 1.9 °F -0.2 °F 1024.6 in SSW 4.8 mph 8.0 mph 86 % 0.0 in
05:30 1.8 °F -0.1 °F 1024.3 in SSW 4.8 mph 9.7 mph 87 % 0.0 in
05:45 1.8 °F -0.1 °F 1024.3 in SSW 4.8 mph 9.7 mph 87 % 0.0 in
06:00 1.9 °F 0.2 °F 1023.9 in SW 3.2 mph 8.0 mph 88 % 0.0 in
06:15 2.1 °F 0.3 °F 1023.6 in SW 3.2 mph 8.0 mph 88 % 0.0 in
06:30 2.3 °F 0.4 °F 1023.6 in SW 4.8 mph 8.0 mph 87 % 0.0 in
06:45 2.7 °F 0.8 °F 1023.6 in SSW 1.6 mph 4.8 mph 87 % 0.0 in
07:00 3.4 °F 1.4 °F 1023.6 in Calm   4.8 mph 87 % 0.0 in
07:15 4.2 °F 1.9 °F 1023.2 in Calm     85 % 0.0 in
07:30 5.5 °F 2.8 °F 1023.2 in WNW 1.6 mph 12.9 mph 83 % 0.0 in
07:45 6.7 °F 3.2 °F 1022.9 in West 3.2 mph 14.5 mph 78 % 0.0 in
08:00 7.1 °F 3.2 °F 1022.6 in West 3.2 mph 12.9 mph 76 % 0.0 in
08:15 7.5 °F 3.4 °F 1022.6 in WSW 3.2 mph 12.9 mph 75 % 0.0 in
08:30 7.9 °F 3.6 °F 1022.6 in WNW 3.2 mph 17.7 mph 74 % 0.0 in
08:45 8.5 °F 3.9 °F 1022.2 in WNW 4.8 mph 14.5 mph 73 % 0.0 in
09:00 9.1 °F 4.1 °F 1021.9 in WNW 4.8 mph 12.9 mph 71 % 0.0 in
09:15 9.6 °F 4.4 °F 1021.9 in WNW 3.2 mph 12.9 mph 70 % 0.0 in
09:30 9.9 °F 4.7 °F 1021.6 in WNW 6.4 mph 20.9 mph 70 % 0.0 in
09:45 10.4 °F 4.9 °F 1021.6 in NW 6.4 mph 12.9 mph 69 % 0.0 in
10:00 11.1 °F 5.2 °F 1021.6 in NW 3.2 mph 14.5 mph 67 % 0.0 in
10:15 11.5 °F 5.4 °F 1021.6 in WNW 4.8 mph 11.3 mph 66 % 0.0 in
10:30 12.0 °F 5.8 °F 1021.2 in WNW 3.2 mph 11.3 mph 66 % 0.0 in
10:45 12.5 °F 5.6 °F 1020.9 in WNW 3.2 mph 12.9 mph 63 % 0.0 in
11:00 12.6 °F 6.0 °F 1020.9 in NW 4.8 mph 16.1 mph 64 % 0.0 in
11:15 13.2 °F 6.0 °F 1020.5 in WNW 3.2 mph 14.5 mph 62 % 0.0 in
11:30 13.6 °F 6.2 °F 1020.5 in West 4.8 mph 12.9 mph 61 % 0.0 in
11:45 13.6 °F 6.4 °F 1020.2 in NW 4.8 mph 14.5 mph 62 % 0.0 in
12:00 13.9 °F 6.3 °F 1020.2 in West 4.8 mph 20.9 mph 60 % 0.0 in
12:15 14.3 °F 6.9 °F 1019.9 in WNW 3.2 mph 11.3 mph 61 % 0.0 in
12:30 14.5 °F 6.8 °F 1019.9 in NW 4.8 mph 14.5 mph 60 % 0.0 in
12:45 14.7 °F 7.3 °F 1019.5 in NW 4.8 mph 14.5 mph 61 % 0.0 in
13:15 15.2 °F 7.0 °F 1019.2 in WNW 4.8 mph 14.5 mph 58 % 0.0 in
13:30 15.2 °F 7.0 °F 1019.2 in WNW 6.4 mph 14.5 mph 58 % 0.0 in
13:45 15.7 °F 7.2 °F 1019.2 in West 4.8 mph 17.7 mph 57 % 0.0 in
14:00 16.1 °F 7.3 °F 1019.2 in WSW 3.2 mph 11.3 mph 56 % 0.0 in
14:15 16.2 °F 7.6 °F 1018.8 in Calm     57 % 0.0 in
14:30 16.8 °F 8.0 °F 1018.5 in Calm     56 % 0.0 in
14:45 16.8 °F 8.0 °F 1018.2 in Calm     56 % 0.0 in
15:00 17.2 °F 7.8 °F 1018.2 in Calm     54 % 0.0 in
15:15 17.3 °F 7.7 °F 1017.8 in Calm     53 % 0.0 in
15:30 17.6 °F 7.9 °F 1017.8 in Calm     53 % 0.0 in
15:45 17.7 °F 7.7 °F 1017.8 in Calm     52 % 0.0 in
16:00 17.9 °F 7.9 °F 1017.5 in Calm     52 % 0.0 in
16:15 18.0 °F 8.0 °F 1017.5 in Calm     52 % 0.0 in
16:30 18.0 °F 7.7 °F 1017.2 in Calm     51 % 0.0 in
16:45 17.7 °F 7.4 °F 1017.2 in Calm     51 % 0.0 in
17:00 17.8 °F 7.5 °F 1016.8 in Calm     51 % 0.0 in
17:15 18.1 °F 8.0 °F 1016.8 in Calm     52 % 0.0 in
17:30 17.8 °F 7.6 °F 1016.5 in Calm     51 % 0.0 in
17:45 18.1 °F 7.5 °F 1016.1 in Calm     50 % 0.0 in
18:15 17.9 °F 7.9 °F 1015.8 in Calm     52 % 0.0 in
18:30 17.8 °F 7.6 °F 1015.5 in Calm     51 % 0.0 in
18:45 17.9 °F 7.9 °F 1015.5 in Calm     52 % 0.0 in
19:00 17.8 °F 8.1 °F 1015.1 in Calm     53 % 0.0 in
19:15 17.8 °F 7.8 °F 1015.1 in Calm     52 % 0.0 in
19:30 17.5 °F 7.8 °F 1014.8 in Calm     53 % 0.0 in
19:45 17.2 °F 7.5 °F 1014.8 in Calm     53 % 0.0 in
20:00 16.9 °F 7.8 °F 1014.8 in Calm     55 % 0.0 in
20:15 16.5 °F 7.4 °F 1014.8 in Calm     55 % 0.0 in
20:30 16.1 °F 7.3 °F 1014.4 in Calm     56 % 0.0 in
20:45 15.6 °F 7.1 °F 1014.1 in Calm     57 % 0.0 in
21:00 15.2 °F 7.0 °F 1014.1 in Calm     58 % 0.0 in
21:15 14.9 °F 6.9 °F 1014.1 in Calm     59 % 0.0 in
21:30 14.3 °F 6.9 °F 1013.8 in Calm     61 % 0.0 in
21:45 13.4 °F 6.9 °F 1013.8 in Calm     65 % 0.0 in
22:00 12.4 °F 6.6 °F 1013.8 in Calm     68 % 0.0 in
22:15 11.5 °F 6.4 °F 1013.4 in Calm   3.2 mph 71 % 0.0 in
22:30 11.2 °F 6.3 °F 1013.4 in Calm   4.8 mph 72 % 0.0 in
22:45 11.1 °F 6.3 °F 1013.4 in WNW 1.6 mph 11.3 mph 72 % 0.0 in
23:00 10.7 °F 6.3 °F 1013.8 in WNW 1.6 mph 8.0 mph 74 % 0.0 in
23:15 10.4 °F 6.1 °F 1013.4 in Calm   8.0 mph 75 % 0.0 in
23:30 10.1 °F 6.1 °F 1013.4 in West 1.6 mph 6.4 mph 76 % 0.0 in
23:45 9.9 °F 5.9 °F 1013.4 in WNW 1.6 mph 8.0 mph 76 % 0.0 in
Esan sääasema
Terveisin Weather Underground - 2.75 mb

Alkuperäinen skripti  Jim McMurry - jmcmurry@mwt.net Sovitettu myös templatelle  Wim van der Kuil - Leuven-Template.eu

Laitteet joita käytämme:

Sääasema
Davis VP2

Sääasemaohjelma
Cumulus

Sääaseman tietokone
Asus EeePC

Palveluntarjoaja
Suncomet

Davis VP2

Cumulus

Asus EeePC

Suncomet